EFMA

Mariehamn Airport

Finland
TAF EFMA 170837Z 1709/1718 12011KT 8000 -SN BKN015 TEMPO 1709/1715 1800 SN BKN009 TEMPO 1715/1718 3000 -SN BKN012
Issued Valid From Valid To
Jan-17 @ 08:37 UTC
(2 hours ago)
Jan-17 @ 09:00 UTC
(2 hours ago)
Jan-17 @ 18:00 UTC
(in 7 hours)
Jan-17 @ 09:00 -Jan-17 @ 18:00
Wind Visibility Clouds Conditions
120° at 11 knots 7,998 meters
  • Broken at 1,500' AGL
  • Light Snow
Temporary Jan-17 @ 09:00 -Jan-17 @ 15:00
Visibility Clouds Conditions
1,802 meters
  • Broken at 900' AGL
  • Snow
Temporary Jan-17 @ 15:00 -Jan-17 @ 18:00
Visibility Clouds Conditions
2,993 meters
  • Broken at 1,200' AGL
  • Light Snow
TAF EFMA 170837Z 1709/1718 12011KT 8000 -SN BKN015 TEMPO 1709/1715 1800 SN BKN009 TEMPO 1715/1718 3000 -SN BKN012
Issued Jan-17 @ 08:37 UTC
(2 hours ago)
Valid From Jan-17 @ 09:00 UTC
(2 hours ago)
Valid To Jan-17 @ 18:00 UTC
(in 7 hours)
Jan-17 @ 09:00 - Jan-17 @ 18:00
Wind Visibility
120° at 11 knots 7,998 meters
Clouds
  • Broken at 1,500' AGL
Conditions
  • Light Snow
Temporary Jan-17 @ 09:00 - Jan-17 @ 15:00
Clouds
  • Broken at 900' AGL
Conditions
  • Snow
Temporary Jan-17 @ 15:00 - Jan-17 @ 18:00
Clouds
  • Broken at 1,200' AGL
Conditions
  • Light Snow